Yellowstone National Park, WY

9:14 AM MDT on October 25, 2014 (GMT -0600)
RAWS GREBE WY US | Change Station
CLOSE
Current Station
Personal Weather Station
Location: Yellowstone National Park, WY
Elevation: 7899 ft
Nearby Weather Stations

Elev 7899 ft 44.72 °N, 110.51 °W | Updated 25 minutes ago

Clear
Clear
31 °F
Feels Like 31 °F
N
2
Wind Variable Wind from North
Gusts 3.0 mph

Today
High -- | Low -- °F
--% Chance of Precip.
Yesterday
High -- | Low -- °F
Precip. -- in
7:50 AM 6:20 PM
Waxing Crescent, 3% visible
Pressure 30.15 in
Visibility 10.0 miles
Clouds Clear
Windchill 31 °F
Dew Point 25 °F
Humidity 77%
Rainfall 0.00 in
Snow Depth Not available.
UV 1 out of 12
Pollen 2.00 out of 12
Air Quality Not available.
Flu Activity Sporadic
METAR KWYS 251455Z AUTO 00000KT 10SM CLR M03/M04 A3015 RMK AO2

More Conditions Fewer Conditions

Pressure 30.15 in
Visibility 10.0 miles
Clouds Clear
Windchill 31 °F
Dew Point 25 °F
Humidity 77%
Rainfall 0.00 in
Snow Depth Not available.
UV 1 out of 12
Pollen 2.00 out of 12
Air Quality Not available.
Flu Activity Sporadic
METAR KWYS 251455Z AUTO 00000KT 10SM CLR M03/M04 A3015 RMK AO2

More Conditions Fewer Conditions

10-Day Weather Forecast

Almanac

Astronomy

Oct. 25, 2014 Rise Set
Actual Time 7:50 AM MDT 6:20 PM MDT
Civil Twilight 7:20 AM MDT 6:50 PM MDT
Nautical Twilight 6:46 AM MDT 7:24 PM MDT
Astronomical Twilight 6:12 AM MDT 7:58 PM MDT
Moon 9:36 AM MDT 7:42 PM MDT
Length of Visible Light 11h 29m
Length of Day
10h 29m
Tomorrow will be 2m 54s shorter.
Waxing Crescent, 3% of the Moon is Illuminated
Today
Waxing Crescent
Oct 30
First Quarter
Nov 6
Full
Nov 14
Last Quarter
Nov 22
New

Today's Extremes

State Highs State Lows

Community

WunderPhotos

Upload Photos

1,764,869 photos uploaded!

Nearby

Snow Depth

Station Depth Elevation
Sylvan Lake 0 in 8420 ft
Thumb Divide 1 in 7980 ft
Lewis Lake Divide 1 in 7850 ft
Two Ocean Plateau 0 in 9240 ft
Base Camp 0 in 7030 ft

Earthquake Activity

City Distance Mag. Time & Date
No recent earthquake activity has been reported nearby.
Minimum magnitude displayed is 2.5.

Coastal Water Temperatures

Place Temperature
No Stations Reporting

Nearby Weather Stations